Time;durP1;ratioP1;P1;durP2;ratioP2;P2;SDS_P1;SDS_P2;PMS_P1;PMS_P2;Temp;Humidity;BMP_temperature;BMP_pressure;BME280_temperature;BME280_humidity;BME280_pressure;Samples;Min_cycle;Max_cycle;Signal;HPM_P1;HPM_P2
2023/06/18 00:00:27;;;;;;;13.35;11.57;;;15.40;46.60;;;;;;4948436;28;20210;-90
2023/06/18 00:02:55;;;;;;;14.15;10.50;;;15.50;46.50;;;;;;4952015;28;20662;-90
2023/06/18 00:05:22;;;;;;;11.90;9.68;;;15.50;46.50;;;;;;4937383;28;20205;-90
2023/06/18 00:07:49;;;;;;;13.00;10.13;;;15.50;46.10;;;;;;4955652;28;20542;-90
2023/06/18 00:10:16;;;;;;;13.27;10.43;;;15.40;45.70;;;;;;4945041;28;20207;-90
2023/06/18 00:12:43;;;;;;;12.18;9.30;;;15.40;45.60;;;;;;4948401;28;20224;-90
2023/06/18 00:15:11;;;;;;;13.38;11.98;;;15.40;45.70;;;;;;4955319;28;21091;-90
2023/06/18 00:17:38;;;;;;;11.98;9.57;;;15.40;47.00;;;;;;4952976;28;20240;-90
2023/06/18 00:20:08;;;;;;;10.82;9.27;;;15.40;46.60;;;;;;4934617;28;20661;-91
2023/06/18 00:22:38;;;;;;;16.13;12.00;;;15.40;47.00;;;;;;4946514;28;20208;-90
2023/06/18 00:25:06;;;;;;;15.48;11.25;;;15.40;47.40;;;;;;4952645;28;20205;-90
2023/06/18 00:27:33;;;;;;;12.38;10.50;;;15.30;47.90;;;;;;4929996;28;20211;-91
2023/06/18 00:30:01;;;;;;;12.02;10.52;;;15.30;48.90;;;;;;4952762;28;20202;-89
2023/06/18 00:32:28;;;;;;;16.45;10.00;;;15.30;49.90;;;;;;4951354;28;20200;-90
2023/06/18 00:34:55;;;;;;;12.40;9.32;;;15.30;48.80;;;;;;4946789;28;20277;-89
2023/06/18 00:42:48;;;;;;;11.13;9.02;;;15.20;47.60;;;;;;4949356;28;20205;-89
2023/06/18 00:45:16;;;;;;;13.25;10.25;;;15.20;47.80;;;;;;4957131;28;20201;-91
2023/06/18 00:47:46;;;;;;;11.77;9.30;;;15.20;48.50;;;;;;4931125;28;20205;-90
2023/06/18 00:50:16;;;;;;;8.77;7.82;;;15.20;48.30;;;;;;4917022;29;20205;-89
2023/06/18 00:55:28;;;;;;;10.70;8.45;;;15.20;47.90;;;;;;4945202;28;20232;-90
2023/06/18 00:58:02;;;;;;;10.48;8.00;;;15.10;48.60;;;;;;4920793;28;20205;-89
2023/06/18 01:00:47;;;;;;;10.55;8.63;;;15.00;49.10;;;;;;4952733;28;20210;-90
2023/06/18 01:03:17;;;;;;;11.52;9.63;;;15.00;49.90;;;;;;4934400;28;20560;-91
2023/06/18 01:05:46;;;;;;;9.43;7.93;;;14.90;50.80;;;;;;4932252;28;20212;-91
2023/06/18 01:13:42;;;;;;;9.93;8.52;;;15.00;51.40;;;;;;4923136;28;20577;-88
2023/06/18 01:18:51;;;;;;;10.70;8.45;;;14.90;51.30;;;;;;4933619;28;20233;-90
2023/06/18 01:21:22;;;;;;;11.63;7.88;;;14.80;51.30;;;;;;4935428;29;20203;-88
2023/06/18 01:24:03;;;;;;;10.57;8.10;;;14.70;53.10;;;;;;4943055;28;20284;-90
2023/06/18 01:26:32;;;;;;;8.77;7.75;;;14.60;54.20;;;;;;4935686;28;20197;-89
2023/06/18 01:29:00;;;;;;;11.05;7.78;;;14.60;54.60;;;;;;4956172;28;20198;-88
2023/06/18 01:31:30;;;;;;;10.25;7.65;;;14.50;55.60;;;;;;4939750;28;20201;-90
2023/06/18 01:33:57;;;;;;;10.50;8.00;;;14.40;56.20;;;;;;4918112;28;20209;-90
2023/06/18 01:42:14;;;;;;;9.93;8.40;;;14.20;60.10;;;;;;4953192;28;20290;-89
2023/06/18 01:47:31;;;;;;;10.68;7.85;;;14.10;58.90;;;;;;4922115;28;20202;-88
2023/06/18 01:50:01;;;;;;;10.35;8.02;;;14.10;59.00;;;;;;4951936;28;20558;-89
2023/06/18 01:58:15;;;;;;;13.20;8.60;;;13.90;60.60;;;;;;4938251;28;20201;-91
2023/06/18 02:00:43;;;;;;;10.60;8.07;;;13.80;61.20;;;;;;4955178;28;20202;-89
2023/06/18 02:03:10;;;;;;;11.48;9.90;;;13.90;62.70;;;;;;4934441;28;20209;-90
2023/06/18 02:05:37;;;;;;;13.35;9.80;;;13.90;64.30;;;;;;4956215;28;20567;-89
2023/06/18 02:08:04;;;;;;;9.00;8.10;;;14.00;65.00;;;;;;4935680;28;20206;-90
2023/06/18 02:10:33;;;;;;;9.43;8.30;;;13.90;61.70;;;;;;4955009;28;20260;-90
2023/06/18 02:13:00;;;;;;;9.48;8.02;;;13.90;62.00;;;;;;4925972;28;20206;-90
2023/06/18 02:15:27;;;;;;;10.00;7.65;;;13.80;62.60;;;;;;4951674;28;20221;-88
2023/06/18 02:17:54;;;;;;;9.82;8.07;;;13.80;63.20;;;;;;4949733;28;20717;-90
2023/06/18 02:23:03;;;;;;;10.20;7.65;;;13.70;63.00;;;;;;4950057;28;20576;-91
2023/06/18 02:25:30;;;;;;;10.43;8.18;;;13.60;63.80;;;;;;4931441;29;20256;-89
2023/06/18 02:30:39;;;;;;;10.93;9.07;;;13.60;65.80;;;;;;4946580;28;20232;-90
2023/06/18 02:35:48;;;;;;;10.80;8.77;;;13.70;67.00;;;;;;4937413;29;20266;-88
2023/06/18 02:38:15;;;;;;;10.23;9.00;;;13.70;65.60;;;;;;4937200;28;20208;-90
2023/06/18 02:40:42;;;;;;;10.57;8.38;;;13.60;64.70;;;;;;4933032;29;20216;-91
2023/06/18 02:45:52;;;;;;;9.93;8.15;;;13.70;67.50;;;;;;4936390;28;20706;-91
2023/06/18 02:48:20;;;;;;;9.10;8.20;;;13.60;65.80;;;;;;4955694;28;20661;-90
2023/06/18 02:50:47;;;;;;;8.75;7.85;;;13.50;67.20;;;;;;4932854;29;20217;-90
2023/06/18 02:53:14;;;;;;;9.15;8.25;;;13.50;67.50;;;;;;4930543;28;20196;-91
2023/06/18 02:55:42;;;;;;;10.20;8.18;;;13.40;67.60;;;;;;4930767;28;20226;-89
2023/06/18 03:01:02;;;;;;;12.00;8.48;;;13.50;69.20;;;;;;4961915;28;20934;-90
2023/06/18 03:03:30;;;;;;;9.77;8.63;;;13.50;66.60;;;;;;4948938;28;20198;-89
2023/06/18 03:05:58;;;;;;;11.35;9.32;;;13.40;67.30;;;;;;4954726;28;20209;-88
2023/06/18 03:08:46;;;;;;;11.77;9.38;;;13.50;70.20;;;;;;4925871;28;20735;-89
2023/06/18 03:11:28;;;;;;;11.52;8.15;;;13.50;68.90;;;;;;4946921;28;20193;-90
2023/06/18 03:13:57;;;;;;;10.93;7.97;;;13.50;67.50;;;;;;4935095;28;20205;-90
2023/06/18 03:16:26;;;;;;;8.77;7.65;;;13.40;69.60;;;;;;4951375;28;20217;-88
2023/06/18 03:18:54;;;;;;;9.70;7.60;;;13.50;68.50;;;;;;4939967;28;20724;-88
2023/06/18 03:21:21;;;;;;;8.65;7.80;;;13.40;68.10;;;;;;4953635;28;20554;-89
2023/06/18 03:23:49;;;;;;;10.73;7.75;;;13.30;67.20;;;;;;4945970;28;20564;-90
2023/06/18 03:26:17;;;;;;;9.30;7.90;;;13.20;68.40;;;;;;4953654;28;20422;-90
2023/06/18 03:28:44;;;;;;;8.50;7.70;;;13.20;71.30;;;;;;4945990;28;20259;-88
2023/06/18 03:33:53;;;;;;;8.38;7.57;;;13.10;70.90;;;;;;4946367;28;20205;-89
2023/06/18 03:36:20;;;;;;;8.57;7.78;;;13.00;70.30;;;;;;4961372;28;20228;-90
2023/06/18 03:38:47;;;;;;;10.50;8.40;;;13.00;70.60;;;;;;4949027;28;20217;-90
2023/06/18 03:41:15;;;;;;;9.25;7.57;;;13.10;70.40;;;;;;4944945;28;20208;-90
2023/06/18 03:43:42;;;;;;;9.02;7.90;;;13.10;71.20;;;;;;4956221;28;20658;-90
2023/06/18 03:46:09;;;;;;;9.00;7.88;;;13.20;70.30;;;;;;4948913;28;20202;-90
2023/06/18 03:48:38;;;;;;;8.82;7.93;;;13.20;68.90;;;;;;4952974;28;20209;-89
2023/06/18 03:51:24;;;;;;;10.02;7.85;;;13.20;69.50;;;;;;4938763;28;20210;-88
2023/06/18 03:53:52;;;;;;;8.88;7.75;;;13.20;69.60;;;;;;4944075;28;20253;-90
2023/06/18 03:56:20;;;;;;;10.82;8.07;;;13.20;68.70;;;;;;4950873;28;20220;-90
2023/06/18 03:58:48;;;;;;;10.02;7.38;;;13.20;68.50;;;;;;4932371;28;20205;-90
2023/06/18 04:06:39;;;;;;;10.68;7.93;;;13.40;68.50;;;;;;4944004;28;20205;-89
2023/06/18 04:09:06;;;;;;;9.85;7.57;;;13.50;68.50;;;;;;4950821;28;20552;-90
2023/06/18 04:11:33;;;;;;;9.27;7.43;;;13.60;65.50;;;;;;4949143;28;20213;-90
2023/06/18 04:14:00;;;;;;;10.90;7.85;;;13.60;64.80;;;;;;4933981;28;20212;-89
2023/06/18 04:16:28;;;;;;;9.45;8.20;;;13.60;63.30;;;;;;4952580;28;20256;-91
2023/06/18 04:18:55;;;;;;;10.40;7.40;;;13.60;62.40;;;;;;4936686;28;20239;-88
2023/06/18 04:24:29;;;;;;;10.13;7.32;;;13.70;63.10;;;;;;4950217;28;20208;-89
2023/06/18 04:26:56;;;;;;;9.43;7.43;;;13.90;61.90;;;;;;4949462;28;20209;-90
2023/06/18 04:29:23;;;;;;;9.35;7.38;;;13.90;61.30;;;;;;4954439;28;20201;-89
2023/06/18 04:31:50;;;;;;;10.43;7.82;;;14.00;59.20;;;;;;4942670;28;20268;-88
2023/06/18 04:34:17;;;;;;;9.02;7.20;;;14.10;59.20;;;;;;4950347;28;20209;-88
2023/06/18 04:36:46;;;;;;;8.63;6.82;;;14.20;60.40;;;;;;4953127;28;20229;-90
2023/06/18 04:39:13;;;;;;;7.93;7.10;;;14.40;59.30;;;;;;4956371;28;20728;-90
2023/06/18 04:41:40;;;;;;;10.07;7.55;;;14.60;55.30;;;;;;4951785;28;20292;-90
2023/06/18 04:44:08;;;;;;;8.18;6.97;;;14.70;56.70;;;;;;4952500;28;20261;-89
2023/06/18 04:46:39;;;;;;;8.90;7.07;;;14.90;53.70;;;;;;4947452;28;20297;-90
2023/06/18 04:49:06;;;;;;;8.45;7.47;;;15.00;51.40;;;;;;4950845;28;20575;-91
2023/06/18 04:51:33;;;;;;;8.30;7.43;;;15.00;51.40;;;;;;4951657;28;20218;-89
2023/06/18 04:56:42;;;;;;;7.82;7.00;;;15.00;51.40;;;;;;4956397;28;20248;-90
2023/06/18 05:01:50;;;;;;;9.30;7.00;;;15.30;51.60;;;;;;4946566;28;20206;-88
2023/06/18 05:04:17;;;;;;;7.47;6.68;;;15.40;49.00;;;;;;4953867;28;20205;-88
2023/06/18 05:06:44;;;;;;;7.65;6.72;;;15.50;47.80;;;;;;4932412;28;20268;-91
2023/06/18 05:09:13;;;;;;;10.98;6.72;;;15.50;47.40;;;;;;4957468;28;20232;-91
2023/06/18 05:11:40;;;;;;;7.78;6.82;;;15.70;45.40;;;;;;4951253;28;20252;-90
2023/06/18 05:14:07;;;;;;;8.05;6.97;;;15.80;45.40;;;;;;4955395;28;20279;-89
2023/06/18 05:16:34;;;;;;;7.57;6.60;;;16.00;44.90;;;;;;4951311;28;20589;-88
2023/06/18 05:19:01;;;;;;;8.52;7.10;;;16.10;43.50;;;;;;4949054;28;20230;-91
2023/06/18 05:24:10;;;;;;;7.93;7.13;;;16.30;46.20;;;;;;4952260;28;20220;-91
2023/06/18 05:26:38;;;;;;;9.95;7.10;;;16.40;45.30;;;;;;4948449;28;20212;-90
2023/06/18 05:29:05;;;;;;;7.70;7.00;;;16.60;43.40;;;;;;4939709;28;20205;-89
2023/06/18 05:31:32;;;;;;;11.93;7.82;;;16.80;43.80;;;;;;4951831;28;20673;-89
2023/06/18 05:33:59;;;;;;;10.32;7.63;;;17.00;42.80;;;;;;4951699;28;20193;-89
2023/06/18 05:36:26;;;;;;;7.95;7.07;;;17.20;40.80;;;;;;4950201;28;20226;-90
2023/06/18 05:38:58;;;;;;;7.32;6.63;;;17.40;37.90;;;;;;4940137;28;20213;-89
2023/06/18 05:41:26;;;;;;;7.85;6.40;;;17.60;32.00;;;;;;4955158;28;20205;-89
2023/06/18 05:46:35;;;;;;;9.73;6.60;;;18.40;30.70;;;;;;4947270;28;20658;-90
2023/06/18 05:49:02;;;;;;;8.40;6.75;;;18.80;28.00;;;;;;4951886;28;20209;-92
2023/06/18 05:51:29;;;;;;;8.13;6.80;;;19.30;26.40;;;;;;4957427;28;20202;-91
2023/06/18 05:53:56;;;;;;;7.63;6.85;;;19.70;25.00;;;;;;4948322;28;20209;-91
2023/06/18 05:56:22;;;;;;;7.32;6.63;;;19.90;25.20;;;;;;4953057;28;20241;-89
2023/06/18 05:58:49;;;;;;;7.85;7.13;;;20.00;24.30;;;;;;4946784;28;20213;-88
2023/06/18 06:03:58;;;;;;;7.43;6.72;;;19.70;23.20;;;;;;4955743;28;20201;-89
2023/06/18 06:06:25;;;;;;;9.40;7.00;;;19.40;23.20;;;;;;4939316;28;20282;-91
2023/06/18 06:08:52;;;;;;;8.88;6.95;;;19.20;23.40;;;;;;4952063;28;20205;-90
2023/06/18 06:11:19;;;;;;;7.60;6.72;;;19.10;25.00;;;;;;4952760;28;20691;-89
2023/06/18 06:13:46;;;;;;;9.88;6.68;;;19.00;25.10;;;;;;4954656;28;20202;-92
2023/06/18 06:16:13;;;;;;;7.88;6.90;;;19.00;25.40;;;;;;4955048;28;20248;-90
2023/06/18 06:18:41;;;;;;;7.80;7.00;;;19.00;25.20;;;;;;4947415;28;20237;-92
2023/06/18 06:21:08;;;;;;;7.55;6.75;;;18.90;26.20;;;;;;4944642;28;20214;-90
2023/06/18 06:23:36;;;;;;;9.18;6.78;;;19.00;25.10;;;;;;4958360;28;20205;-90
2023/06/18 06:26:03;;;;;;;8.73;7.00;;;19.00;26.00;;;;;;4951087;28;20532;-92
2023/06/18 06:28:38;;;;;;;7.82;7.03;;;19.10;25.20;;;;;;4952720;28;20550;-88
2023/06/18 06:31:25;;;;;;;8.60;6.93;;;19.20;24.80;;;;;;4950958;28;20193;-90
2023/06/18 06:33:53;;;;;;;7.90;7.03;;;19.30;26.30;;;;;;4926893;28;20713;-89
2023/06/18 06:36:21;;;;;;;7.80;7.05;;;19.30;24.20;;;;;;4929543;28;20324;-91
2023/06/18 06:38:47;;;;;;;8.90;6.78;;;19.40;23.00;;;;;;4932979;28;20321;-90
2023/06/18 06:41:14;;;;;;;7.82;7.03;;;19.50;23.30;;;;;;4935564;28;20602;-92
2023/06/18 06:43:41;;;;;;;9.65;6.97;;;19.60;23.90;;;;;;4936587;29;20674;-91
2023/06/18 06:51:55;;;;;;;8.52;6.85;;;20.00;21.60;;;;;;4900758;29;20671;-92
2023/06/18 06:54:22;;;;;;;10.55;7.20;;;20.20;22.00;;;;;;4938952;28;20201;-92
2023/06/18 06:56:49;;;;;;;6.82;6.20;;;20.30;22.20;;;;;;4929060;28;20726;-93
2023/06/18 06:59:16;;;;;;;8.07;7.28;;;20.40;23.20;;;;;;4947658;28;20658;-90
2023/06/18 07:01:44;;;;;;;7.82;7.03;;;20.50;22.40;;;;;;4955906;28;20208;-91
2023/06/18 07:04:17;;;;;;;11.15;7.65;;;20.60;21.30;;;;;;4954595;28;20208;-92
2023/06/18 07:06:44;;;;;;;7.53;6.65;;;20.80;21.30;;;;;;4952319;28;20205;-89
2023/06/18 07:09:13;;;;;;;7.60;6.78;;;21.00;22.70;;;;;;4951367;28;20318;-88
2023/06/18 07:11:41;;;;;;;9.18;6.93;;;21.50;19.20;;;;;;4947779;28;20198;-92
2023/06/18 07:14:08;;;;;;;8.80;7.90;;;22.30;18.20;;;;;;4918310;28;20204;-91
2023/06/18 07:16:35;;;;;;;8.13;7.32;;;22.70;17.00;;;;;;4925850;28;20225;-88
2023/06/18 07:19:02;;;;;;;9.27;7.55;;;23.00;16.50;;;;;;4935185;28;20225;-86
2023/06/18 07:21:31;;;;;;;9.30;6.82;;;23.10;16.00;;;;;;4945922;28;20228;-86
2023/06/18 07:23:58;;;;;;;9.38;7.85;;;23.20;16.90;;;;;;4946136;28;20227;-87
2023/06/18 07:26:26;;;;;;;9.38;7.25;;;23.40;17.60;;;;;;4947245;28;20194;-86
2023/06/18 07:28:52;;;;;;;7.90;7.10;;;23.40;13.20;;;;;;4945852;28;20213;-85
2023/06/18 07:31:20;;;;;;;9.70;7.18;;;23.30;14.80;;;;;;4949285;28;20848;-86
2023/06/18 07:33:47;;;;;;;7.65;6.85;;;23.20;13.10;;;;;;4949672;28;20201;-87
2023/06/18 07:36:14;;;;;;;7.35;6.65;;;23.10;13.00;;;;;;4945842;28;20268;-87
2023/06/18 07:38:42;;;;;;;6.95;6.25;;;23.10;14.00;;;;;;4928917;28;20228;-86
2023/06/18 07:41:09;;;;;;;10.43;7.05;;;23.00;14.00;;;;;;4949271;28;20193;-87
2023/06/18 07:43:37;;;;;;;9.43;6.70;;;23.10;13.00;;;;;;4932555;28;20202;-88
2023/06/18 07:46:04;;;;;;;7.47;6.57;;;23.10;13.00;;;;;;4945162;28;20201;-86
2023/06/18 07:48:31;;;;;;;8.05;6.72;;;23.10;13.00;;;;;;4945976;28;20204;-86
2023/06/18 07:50:57;;;;;;;7.05;6.35;;;23.00;12.90;;;;;;4947036;28;20205;-88
2023/06/18 07:53:25;;;;;;;9.07;6.28;;;23.10;13.00;;;;;;4949055;28;20197;-87
2023/06/18 07:55:53;;;;;;;8.48;6.68;;;23.40;12.20;;;;;;4938375;28;20566;-88
2023/06/18 07:58:21;;;;;;;8.13;6.70;;;23.60;13.30;;;;;;4944592;28;20206;-87
2023/06/18 08:00:48;;;;;;;7.45;5.70;;;23.70;11.20;;;;;;4945039;28;20574;-86
2023/06/18 08:03:14;;;;;;;7.55;6.47;;;23.90;11.20;;;;;;4948633;28;20216;-88
2023/06/18 08:05:41;;;;;;;7.63;6.03;;;24.10;11.50;;;;;;4953286;28;20215;-89
2023/06/18 08:08:08;;;;;;;6.63;6.03;;;24.20;10.70;;;;;;4954315;28;20213;-88
2023/06/18 08:10:36;;;;;;;6.53;5.72;;;24.40;13.80;;;;;;4950103;28;20260;-90
2023/06/18 08:15:45;;;;;;;6.50;5.40;;;24.90;11.60;;;;;;4938166;28;20209;-87
2023/06/18 08:18:12;;;;;;;7.60;5.95;;;25.30;8.60;;;;;;4950351;28;20223;-85
2023/06/18 08:20:39;;;;;;;6.68;6.00;;;26.00;9.10;;;;;;4958721;28;20287;-89
2023/06/18 08:23:06;;;;;;;8.15;6.35;;;27.10;6.00;;;;;;4949212;28;20205;-89
2023/06/18 08:25:33;;;;;;;6.90;6.30;;;28.80;3.60;;;;;;4941459;28;20398;-89
2023/06/18 08:28:00;;;;;;;7.75;6.30;;;30.40;1.50;;;;;;4931235;28;20208;-84
2023/06/18 08:30:28;;;;;;;8.60;6.70;;;30.80;1.50;;;;;;4945957;28;20717;-91
2023/06/18 08:32:58;;;;;;;8.70;6.35;;;31.60;1.00;;;;;;4928903;29;20233;-89
2023/06/18 08:35:25;;;;;;;6.78;6.22;;;31.80;1.00;;;;;;4949173;28;20206;-89
2023/06/18 08:37:52;;;;;;;7.20;6.60;;;32.10;1.00;;;;;;4936341;28;20221;-89
2023/06/18 08:40:24;;;;;;;6.80;6.20;;;32.10;1.00;;;;;;4941187;28;20247;-89
2023/06/18 08:42:51;;;;;;;7.43;6.72;;;32.50;1.00;;;;;;4962872;28;20224;-88
2023/06/18 08:45:18;;;;;;;7.22;6.50;;;33.30;1.00;;;;;;4951858;28;20200;-86
2023/06/18 08:50:34;;;;;;;7.00;6.43;;;32.80;1.00;;;;;;4943208;28;20241;-88
2023/06/18 08:53:07;;;;;;;7.80;7.10;;;33.00;1.00;;;;;;4951898;28;20205;-92
2023/06/18 08:55:35;;;;;;;7.85;7.05;;;33.50;1.00;;;;;;4948048;28;20264;-91
2023/06/18 08:58:06;;;;;;;7.53;6.88;;;33.80;1.00;;;;;;4944484;28;20225;-90
2023/06/18 09:00:33;;;;;;;8.20;7.40;;;33.90;1.00;;;;;;4953053;28;20216;-88
2023/06/18 09:03:10;;;;;;;7.85;7.22;;;34.50;1.00;;;;;;4950454;28;20201;-91
2023/06/18 09:05:40;;;;;;;7.93;6.88;;;34.30;1.00;;;;;;4956884;28;20648;-92
2023/06/18 09:08:08;;;;;;;7.65;7.05;;;33.60;1.00;;;;;;4954514;28;20212;-91
2023/06/18 09:10:35;;;;;;;7.60;6.97;;;33.50;1.00;;;;;;4946200;28;20209;-91
2023/06/18 09:13:03;;;;;;;7.22;6.63;;;33.20;1.00;;;;;;4951006;28;20197;-92
2023/06/18 09:15:30;;;;;;;8.65;7.13;;;33.70;1.00;;;;;;4950771;28;20201;-94
2023/06/18 09:17:57;;;;;;;8.38;7.15;;;33.30;1.00;;;;;;4948584;28;20292;-89
2023/06/18 09:20:28;;;;;;;23.38;21.55;;;33.30;1.00;;;;;;4956185;28;20608;-89
2023/06/18 09:22:55;;;;;;;7.55;6.78;;;33.10;1.00;;;;;;4944236;28;20205;-88
2023/06/18 09:25:22;;;;;;;9.68;7.65;;;33.20;1.00;;;;;;4956781;28;20668;-88
2023/06/18 09:27:50;;;;;;;7.35;6.60;;;33.00;1.00;;;;;;4952515;28;20211;-90
2023/06/18 09:30:22;;;;;;;7.22;6.60;;;32.60;1.00;;;;;;4949251;28;20670;-90
2023/06/18 09:32:49;;;;;;;7.38;6.78;;;32.30;1.00;;;;;;4956500;28;20672;-90
2023/06/18 09:35:17;;;;;;;7.93;7.22;;;33.00;1.00;;;;;;4946512;28;20232;-89
2023/06/18 09:37:48;;;;;;;7.32;6.72;;;33.20;1.00;;;;;;4953270;28;20424;-88
2023/06/18 09:40:16;;;;;;;7.03;6.32;;;32.80;1.00;;;;;;4960757;28;20204;-89
2023/06/18 09:42:44;;;;;;;7.72;7.03;;;32.80;1.00;;;;;;4952492;28;20220;-89
2023/06/18 09:45:14;;;;;;;8.15;7.43;;;33.10;1.00;;;;;;4945928;28;20209;-94
2023/06/18 09:47:47;;;;;;;8.00;7.30;;;33.50;1.00;;;;;;4953446;28;20242;-91
2023/06/18 09:50:14;;;;;;;8.38;7.55;;;33.90;1.00;;;;;;4947836;28;20201;-92
2023/06/18 09:52:46;;;;;;;8.07;7.43;;;33.80;1.00;;;;;;4946426;28;20204;-92
2023/06/18 09:55:30;;;;;;;8.73;7.60;;;33.40;1.00;;;;;;4945305;28;20248;-93
2023/06/18 09:57:57;;;;;;;8.93;7.60;;;33.20;1.00;;;;;;4950539;28;20216;-92
2023/06/18 10:00:25;;;;;;;8.30;7.60;;;34.40;1.00;;;;;;4953826;28;20219;-92
2023/06/18 10:02:52;;;;;;;8.30;7.50;;;35.90;1.00;;;;;;4954635;28;20617;-93
2023/06/18 10:05:19;;;;;;;8.60;7.70;;;35.40;1.00;;;;;;4953008;28;20210;-92
2023/06/18 10:07:49;;;;;;;8.35;7.50;;;34.90;1.00;;;;;;4947477;28;20209;-91
2023/06/18 10:10:17;;;;;;;12.07;10.98;;;35.40;1.00;;;;;;4948900;28;20197;-92
2023/06/18 10:12:45;;;;;;;8.48;7.65;;;35.20;1.00;;;;;;4951773;28;20864;-91
2023/06/18 10:15:13;;;;;;;7.75;7.05;;;34.60;1.00;;;;;;4944426;28;20209;-92
2023/06/18 10:17:45;;;;;;;8.52;7.30;;;33.50;1.00;;;;;;4949402;28;20744;-93
2023/06/18 10:20:15;;;;;;;10.18;7.60;;;33.20;1.00;;;;;;4953175;28;20209;-92
2023/06/18 10:22:46;;;;;;;9.48;8.02;;;33.90;1.00;;;;;;4951316;28;20681;-88
2023/06/18 10:25:22;;;;;;;7.82;7.22;;;34.30;1.00;;;;;;4936071;28;21246;-94
2023/06/18 10:27:50;;;;;;;7.88;7.18;;;33.60;1.00;;;;;;4952968;28;20196;-93
2023/06/18 10:30:17;;;;;;;8.00;7.30;;;32.90;1.00;;;;;;4936855;28;20208;-92
2023/06/18 10:32:45;;;;;;;9.75;7.18;;;33.00;1.00;;;;;;4948373;28;20208;-90
2023/06/18 10:35:15;;;;;;;8.10;7.30;;;32.80;1.00;;;;;;4956732;28;20291;-93
2023/06/18 10:37:50;;;;;;;8.50;7.70;;;32.80;1.00;;;;;;4957159;28;20760;-89
2023/06/18 10:40:18;;;;;;;7.68;7.05;;;32.30;1.00;;;;;;4928907;28;20193;-90
2023/06/18 10:42:49;;;;;;;7.82;7.15;;;32.50;1.00;;;;;;4926987;29;20225;-92
2023/06/18 10:45:18;;;;;;;7.90;7.20;;;32.70;1.00;;;;;;4946768;28;20212;-88
2023/06/18 10:47:45;;;;;;;7.70;7.00;;;32.50;2.10;;;;;;4950186;28;20548;-89
2023/06/18 10:53:23;;;;;;;7.53;6.85;;;32.60;1.00;;;;;;4948910;28;20212;-90
2023/06/18 10:56:00;;;;;;;7.93;7.13;;;32.90;1.00;;;;;;4942040;29;20208;-90
2023/06/18 10:58:33;;;;;;;11.18;7.10;;;32.80;1.00;;;;;;4949604;28;20246;-88
2023/06/18 11:01:00;;;;;;;9.27;6.90;;;33.10;1.00;;;;;;4933877;28;20244;-92
2023/06/18 11:03:35;;;;;;;7.53;6.82;;;32.30;1.00;;;;;;4949296;28;20193;-92
2023/06/18 11:06:04;;;;;;;8.25;6.85;;;32.30;1.00;;;;;;4950647;28;20209;-92
2023/06/18 11:08:33;;;;;;;7.25;6.65;;;32.50;1.00;;;;;;4937136;29;20564;-88
2023/06/18 11:11:13;;;;;;;10.05;6.55;;;32.00;1.00;;;;;;4951990;28;20212;-89
2023/06/18 11:13:41;;;;;;;7.60;6.90;;;31.70;2.00;;;;;;4960693;28;20710;-89
2023/06/18 11:16:16;;;;;;;6.80;6.20;;;31.20;1.00;;;;;;4966927;28;20200;-93
2023/06/18 11:18:47;;;;;;;9.63;6.97;;;30.90;4.20;;;;;;4949224;28;20267;-91
2023/06/18 11:21:16;;;;;;;6.82;6.22;;;30.50;3.50;;;;;;4940864;29;20215;-88
2023/06/18 11:23:44;;;;;;;8.05;6.43;;;30.50;4.60;;;;;;4960405;28;20197;-89
2023/06/18 11:26:16;;;;;;;7.43;6.80;;;30.20;2.80;;;;;;5759524;23;20290;-94
2023/06/18 11:28:43;;;;;;;7.22;6.55;;;30.20;2.60;;;;;;4936342;29;20590;-89
2023/06/18 11:31:54;;;;;;;7.55;6.18;;;30.40;4.00;;;;;;4951753;29;20205;-91
2023/06/18 11:34:22;;;;;;;8.77;7.85;;;30.40;4.00;;;;;;4935079;29;20674;-90
2023/06/18 11:36:49;;;;;;;8.57;6.03;;;30.40;2.20;;;;;;4933768;29;20276;-91
2023/06/18 11:39:16;;;;;;;7.65;6.82;;;30.30;3.10;;;;;;4916963;29;20690;-88
2023/06/18 11:41:44;;;;;;;7.18;6.50;;;30.20;3.20;;;;;;4927932;29;20725;-88
2023/06/18 11:44:13;;;;;;;7.10;6.45;;;30.20;2.50;;;;;;4961387;29;20181;-88
2023/06/18 11:46:42;;;;;;;16.00;8.75;;;30.30;1.90;;;;;;5606482;23;21154;-93
2023/06/18 11:49:13;;;;;;;10.30;6.25;;;30.20;2.10;;;;;;4964827;28;20276;-87
2023/06/18 11:51:40;;;;;;;7.15;6.45;;;30.20;2.40;;;;;;4975928;28;20199;-87
2023/06/18 11:54:08;;;;;;;6.95;6.25;;;29.80;3.40;;;;;;4946700;28;20200;-88
2023/06/18 11:56:35;;;;;;;7.13;6.43;;;29.70;3.00;;;;;;4955051;28;20246;-87
2023/06/18 11:59:04;;;;;;;10.52;6.30;;;29.60;3.90;;;;;;4944585;28;20278;-90
2023/06/18 12:01:32;;;;;;;8.98;7.70;;;29.40;3.10;;;;;;4956882;28;20200;-89
2023/06/18 12:04:04;;;;;;;7.93;7.13;;;29.50;3.10;;;;;;4980967;28;20200;-90
2023/06/18 12:06:30;;;;;;;8.38;6.93;;;29.80;4.10;;;;;;4970960;28;20204;-89
2023/06/18 12:09:05;;;;;;;7.00;6.25;;;29.90;3.00;;;;;;4972806;28;20206;-86
2023/06/18 12:11:37;;;;;;;8.57;6.72;;;29.90;2.80;;;;;;4976075;28;20196;-89
2023/06/18 12:14:14;;;;;;;10.38;8.82;;;30.00;2.50;;;;;;4979235;28;20192;-91
2023/06/18 12:16:42;;;;;;;7.30;6.60;;;30.00;2.20;;;;;;4967686;28;20211;-91
2023/06/18 12:19:13;;;;;;;9.02;6.90;;;29.90;2.30;;;;;;4985672;28;20322;-91
2023/06/18 12:21:40;;;;;;;7.20;6.50;;;29.90;3.40;;;;;;4983732;28;20243;-89
2023/06/18 12:24:07;;;;;;;7.50;6.80;;;29.80;1.60;;;;;;4986109;28;20197;-89
2023/06/18 12:26:34;;;;;;;11.48;6.65;;;29.50;3.50;;;;;;4976877;28;20208;-88
2023/06/18 12:29:02;;;;;;;7.65;6.60;;;29.70;3.00;;;;;;4972630;28;20208;-87
2023/06/18 12:31:30;;;;;;;7.85;7.05;;;29.50;3.30;;;;;;4982036;28;20203;-88
2023/06/18 12:33:57;;;;;;;7.47;6.65;;;29.40;2.80;;;;;;4973603;28;20189;-86
2023/06/18 12:36:27;;;;;;;19.02;13.25;;;29.50;3.70;;;;;;4957444;28;20209;-87
2023/06/18 12:38:54;;;;;;;8.23;7.30;;;29.40;3.10;;;;;;4983538;28;20235;-85
2023/06/18 12:41:23;;;;;;;7.18;6.45;;;29.40;3.10;;;;;;4983485;28;20291;-86
2023/06/18 12:43:50;;;;;;;6.93;6.30;;;29.50;3.00;;;;;;4982604;28;20619;-89
2023/06/18 12:46:24;;;;;;;6.88;6.20;;;29.70;3.10;;;;;;4979614;28;20202;-91
2023/06/18 12:48:54;;;;;;;7.10;6.10;;;29.70;2.40;;;;;;4979413;28;20208;-88
2023/06/18 12:51:22;;;;;;;7.72;6.55;;;29.70;2.40;;;;;;4979478;28;20188;-88
2023/06/18 12:53:52;;;;;;;10.00;7.40;;;29.70;2.20;;;;;;4970063;28;20548;-90
2023/06/18 12:56:20;;;;;;;7.40;6.60;;;29.50;2.00;;;;;;4954287;28;20234;-86
2023/06/18 12:58:47;;;;;;;7.47;6.82;;;29.30;3.40;;;;;;4975860;28;20224;-90
2023/06/18 13:01:14;;;;;;;12.30;7.53;;;29.00;3.50;;;;;;4964257;28;20208;-87
2023/06/18 13:03:42;;;;;;;7.53;6.82;;;29.00;4.00;;;;;;4984026;28;20204;-87
2023/06/18 13:06:10;;;;;;;7.07;6.45;;;29.10;3.60;;;;;;4980205;28;20203;-88
2023/06/18 13:08:38;;;;;;;7.40;6.70;;;29.30;2.90;;;;;;4964259;28;20235;-92
2023/06/18 13:11:06;;;;;;;8.65;6.40;;;29.20;3.20;;;;;;4979130;28;20267;-91
2023/06/18 13:13:33;;;;;;;7.32;6.63;;;29.20;3.40;;;;;;4961682;28;20205;-90
2023/06/18 13:16:02;;;;;;;7.70;6.90;;;29.30;2.40;;;;;;4984147;28;20196;-89
2023/06/18 13:18:29;;;;;;;9.30;7.47;;;29.30;2.00;;;;;;4966200;28;20261;-90
2023/06/18 13:20:58;;;;;;;14.32;6.60;;;29.20;3.70;;;;;;4978835;28;20311;-88
2023/06/18 13:23:26;;;;;;;7.55;6.18;;;29.30;3.20;;;;;;4984819;28;20204;-89
2023/06/18 13:25:54;;;;;;;7.88;6.43;;;29.40;3.60;;;;;;4960472;28;20345;-89
2023/06/18 13:28:21;;;;;;;7.20;6.60;;;29.50;3.30;;;;;;4963623;28;20256;-91
2023/06/18 13:30:48;;;;;;;7.82;6.68;;;29.30;2.80;;;;;;4979082;28;20227;-87
2023/06/18 13:33:16;;;;;;;7.75;7.05;;;29.20;3.40;;;;;;4987083;28;20234;-91
2023/06/18 13:35:44;;;;;;;7.93;7.00;;;29.30;3.10;;;;;;4978773;28;20233;-89
2023/06/18 13:38:10;;;;;;;8.75;6.88;;;29.30;3.60;;;;;;4976633;28;20220;-89
2023/06/18 13:40:39;;;;;;;7.40;6.75;;;29.30;3.80;;;;;;4971692;28;20653;-87
2023/06/18 13:43:06;;;;;;;8.95;6.95;;;29.20;2.80;;;;;;4969043;28;20212;-90
2023/06/18 13:45:33;;;;;;;7.88;6.70;;;29.20;3.30;;;;;;4976722;28;20216;-89
2023/06/18 13:48:00;;;;;;;7.28;6.57;;;29.20;3.20;;;;;;4962902;28;20210;-89
2023/06/18 13:50:27;;;;;;;7.93;7.15;;;29.10;3.00;;;;;;4968077;28;20208;-90
2023/06/18 13:52:53;;;;;;;7.38;6.60;;;29.10;3.00;;;;;;4969428;28;20204;-88
2023/06/18 13:55:21;;;;;;;7.78;6.60;;;29.20;3.00;;;;;;4958046;28;20204;-88
2023/06/18 13:57:49;;;;;;;7.30;6.43;;;29.20;3.30;;;;;;4977009;28;20210;-89
2023/06/18 14:00:17;;;;;;;7.45;6.75;;;29.10;4.50;;;;;;4978296;28;20200;-88
2023/06/18 14:02:44;;;;;;;7.53;6.85;;;29.20;2.50;;;;;;4967165;28;20208;-89
2023/06/18 14:05:11;;;;;;;8.35;6.72;;;29.10;2.80;;;;;;4965037;28;20206;-89
2023/06/18 14:07:38;;;;;;;7.68;6.90;;;29.10;3.70;;;;;;4968624;28;20206;-88
2023/06/18 14:10:05;;;;;;;7.57;6.80;;;29.00;3.30;;;;;;4969543;28;20673;-87
2023/06/18 14:12:32;;;;;;;8.60;6.88;;;28.90;3.70;;;;;;4966202;28;20682;-88
2023/06/18 14:15:01;;;;;;;8.27;7.47;;;28.90;2.90;;;;;;4970222;28;20272;-88
2023/06/18 14:17:27;;;;;;;7.70;6.93;;;29.00;4.00;;;;;;4971104;28;20526;-89